Time;durP1;ratioP1;P1;durP2;ratioP2;P2;SDS_P1;SDS_P2;PMS_P1;PMS_P2;Temp;Humidity;BMP_temperature;BMP_pressure;BME280_temperature;BME280_humidity;BME280_pressure;Samples;Min_cycle;Max_cycle;Signal;HPM_P1;HPM_P2
2024/03/21 00:01:33;;;;;;;9.13;5.00;;;14.10;99.90;;;;;;5017119;28;20426;-69
2024/03/21 00:03:59;;;;;;;7.73;5.40;;;14.00;99.90;;;;;;5015620;28;20480;-69
2024/03/21 00:06:25;;;;;;;6.77;5.20;;;14.00;99.90;;;;;;5017972;28;20509;-70
2024/03/21 00:08:51;;;;;;;7.70;5.43;;;14.00;99.90;;;;;;5019829;28;20435;-68
2024/03/21 00:11:19;;;;;;;7.30;5.43;;;14.00;99.90;;;;;;5016188;28;20428;-68
2024/03/21 00:13:44;;;;;;;8.53;6.30;;;14.00;99.90;;;;;;5017893;28;20216;-70
2024/03/21 00:16:12;;;;;;;8.03;5.90;;;14.00;99.90;;;;;;5022598;28;20508;-69
2024/03/21 00:18:37;;;;;;;8.57;6.37;;;14.00;99.90;;;;;;5018453;28;20274;-69
2024/03/21 00:21:04;;;;;;;7.30;6.03;;;13.90;99.90;;;;;;5016603;28;20435;-69
2024/03/21 00:23:30;;;;;;;9.03;5.90;;;13.90;99.90;;;;;;5015244;28;20265;-69
2024/03/21 00:26:00;;;;;;;8.87;6.30;;;13.90;99.90;;;;;;5015466;28;20471;-69
2024/03/21 00:28:26;;;;;;;6.90;5.60;;;13.90;99.90;;;;;;5012929;28;21036;-69
2024/03/21 00:30:54;;;;;;;6.70;5.73;;;13.90;99.90;;;;;;5018097;28;20470;-69
2024/03/21 00:33:20;;;;;;;8.83;5.73;;;13.90;99.90;;;;;;5016708;28;20428;-69
2024/03/21 00:35:46;;;;;;;10.50;6.27;;;13.90;99.90;;;;;;5014042;28;20455;-69
2024/03/21 00:38:12;;;;;;;7.80;6.20;;;13.80;99.90;;;;;;5017333;28;20440;-69
2024/03/21 00:40:38;;;;;;;6.50;5.70;;;13.80;99.90;;;;;;5013343;28;20195;-69
2024/03/21 00:43:04;;;;;;;7.77;6.47;;;13.80;99.90;;;;;;5015480;28;20211;-69
2024/03/21 00:45:30;;;;;;;6.87;6.17;;;13.70;99.90;;;;;;5011872;28;20227;-69
2024/03/21 00:47:56;;;;;;;9.53;6.50;;;13.70;99.90;;;;;;5016553;28;20957;-69
2024/03/21 00:50:22;;;;;;;7.73;6.63;;;13.70;99.90;;;;;;5020168;28;20490;-69
2024/03/21 00:52:48;;;;;;;8.33;6.70;;;13.70;99.90;;;;;;5016315;28;20439;-69
2024/03/21 00:55:13;;;;;;;9.43;7.33;;;13.60;99.90;;;;;;5013514;28;20221;-68
2024/03/21 00:57:39;;;;;;;6.97;6.10;;;13.60;99.90;;;;;;5010812;28;20603;-69
2024/03/21 01:00:07;;;;;;;8.60;6.73;;;13.60;99.90;;;;;;5018207;28;20204;-69
2024/03/21 01:02:34;;;;;;;9.07;5.57;;;13.60;99.90;;;;;;5009534;28;20178;-69
2024/03/21 01:05:00;;;;;;;9.30;6.73;;;13.50;99.90;;;;;;5013822;28;20450;-70
2024/03/21 01:07:25;;;;;;;7.60;5.80;;;13.40;99.90;;;;;;5008983;28;20412;-69
2024/03/21 01:09:51;;;;;;;11.50;7.33;;;13.40;99.90;;;;;;5015053;28;20437;-68
2024/03/21 01:12:16;;;;;;;8.10;6.53;;;13.40;99.90;;;;;;5018729;28;20193;-68
2024/03/21 01:14:42;;;;;;;7.43;6.57;;;13.50;99.90;;;;;;5020420;28;20287;-68
2024/03/21 01:17:07;;;;;;;6.83;6.13;;;13.50;99.90;;;;;;5016966;28;20302;-69
2024/03/21 01:19:35;;;;;;;7.37;6.00;;;13.50;99.90;;;;;;5012926;28;20212;-68
2024/03/21 01:22:00;;;;;;;8.77;6.13;;;13.50;99.90;;;;;;5016603;28;20208;-69
2024/03/21 01:24:26;;;;;;;8.20;6.10;;;13.50;99.90;;;;;;5015147;28;20475;-69
2024/03/21 01:26:52;;;;;;;8.30;6.30;;;13.50;99.90;;;;;;5013779;28;20593;-69
2024/03/21 01:29:17;;;;;;;7.50;6.53;;;13.50;99.90;;;;;;5012166;28;20219;-68
2024/03/21 01:31:43;;;;;;;11.97;6.67;;;13.50;99.90;;;;;;5011386;28;20753;-69
2024/03/21 01:34:09;;;;;;;9.53;5.20;;;13.50;99.90;;;;;;5013529;28;20809;-69
2024/03/21 01:36:44;;;;;;;9.70;6.10;;;13.50;99.90;;;;;;5015376;28;20188;-68
2024/03/21 01:39:10;;;;;;;6.23;5.07;;;13.50;99.90;;;;;;5016972;28;20207;-69
2024/03/21 01:41:36;;;;;;;6.50;5.17;;;13.50;99.90;;;;;;5013639;28;20859;-69
2024/03/21 01:44:01;;;;;;;7.40;5.70;;;13.50;99.90;;;;;;5021132;28;20210;-69
2024/03/21 01:46:27;;;;;;;7.40;5.37;;;13.50;99.90;;;;;;5014937;28;20192;-69
2024/03/21 01:48:53;;;;;;;10.10;6.10;;;13.50;99.90;;;;;;5011969;28;20636;-69
2024/03/21 01:51:22;;;;;;;9.73;5.60;;;13.50;99.90;;;;;;5010760;28;20199;-69
2024/03/21 01:53:50;;;;;;;8.00;5.13;;;13.40;99.90;;;;;;5011265;28;20515;-69
2024/03/21 01:56:16;;;;;;;9.70;5.27;;;13.40;99.90;;;;;;5012040;28;20449;-69
2024/03/21 01:58:42;;;;;;;9.23;4.97;;;13.40;99.90;;;;;;5015458;28;20462;-69
2024/03/21 02:01:30;;;;;;;7.70;4.47;;;13.50;99.90;;;;;;5014827;28;20493;-69
2024/03/21 02:03:59;;;;;;;6.60;4.50;;;13.40;99.90;;;;;;5015860;28;20197;-70
2024/03/21 02:06:26;;;;;;;5.23;4.30;;;13.40;99.90;;;;;;5010013;28;20964;-70
2024/03/21 02:08:53;;;;;;;5.37;4.23;;;13.30;99.90;;;;;;5011429;28;20839;-69
2024/03/21 02:11:21;;;;;;;8.30;4.60;;;13.30;99.90;;;;;;5010813;28;20490;-69
2024/03/21 02:13:49;;;;;;;5.27;4.50;;;13.40;99.90;;;;;;5010570;28;20462;-69
2024/03/21 02:16:15;;;;;;;6.27;4.30;;;13.40;99.90;;;;;;5016299;28;20438;-69
2024/03/21 02:18:41;;;;;;;5.87;4.87;;;13.40;99.90;;;;;;5013162;28;20466;-69
2024/03/21 02:22:35;;;;;;;6.77;5.10;;;13.40;99.90;;;;;;5013305;28;20427;-69
2024/03/21 02:23:53;;;;;;;7.70;5.10;;;13.30;99.90;;;;;;5015672;28;20447;-69
2024/03/21 02:26:18;;;;;;;6.13;5.40;;;13.40;99.90;;;;;;5010627;28;20781;-69
2024/03/21 02:28:44;;;;;;;5.80;5.20;;;13.40;99.90;;;;;;5012376;28;21281;-69
2024/03/21 02:31:09;;;;;;;8.13;4.80;;;13.30;99.90;;;;;;5012429;28;20439;-69
2024/03/21 02:33:35;;;;;;;5.07;4.50;;;13.20;99.90;;;;;;5014398;28;20184;-69
2024/03/21 02:36:01;;;;;;;8.47;5.07;;;13.30;99.90;;;;;;5009758;28;20690;-69
2024/03/21 02:38:26;;;;;;;7.20;4.70;;;13.30;99.90;;;;;;5015789;28;20181;-70
2024/03/21 02:40:52;;;;;;;7.30;4.90;;;13.20;99.90;;;;;;5012428;28;20200;-67
2024/03/21 02:43:17;;;;;;;7.50;4.60;;;13.20;99.90;;;;;;5018363;28;20505;-68
2024/03/21 02:45:43;;;;;;;5.77;4.33;;;13.30;99.90;;;;;;5012485;28;20208;-67
2024/03/21 02:48:09;;;;;;;4.77;4.27;;;13.30;99.90;;;;;;5009551;28;20180;-67
2024/03/21 02:50:35;;;;;;;5.70;4.70;;;13.20;99.90;;;;;;5024834;28;20287;-68
2024/03/21 02:53:04;;;;;;;5.30;4.73;;;13.20;99.90;;;;;;5017307;28;20247;-67
2024/03/21 02:55:29;;;;;;;6.33;4.80;;;13.20;99.90;;;;;;5014394;28;20455;-67
2024/03/21 02:57:55;;;;;;;7.70;4.50;;;13.20;99.90;;;;;;5011264;28;20439;-68
2024/03/21 03:00:21;;;;;;;5.30;4.50;;;13.10;99.90;;;;;;5013130;28;20703;-68
2024/03/21 03:02:48;;;;;;;8.33;5.80;;;13.10;99.90;;;;;;5010734;28;20580;-68
2024/03/21 03:05:15;;;;;;;7.73;4.83;;;13.10;99.90;;;;;;5008870;28;20319;-69
2024/03/21 03:07:40;;;;;;;5.43;4.47;;;13.00;99.90;;;;;;5009044;28;20519;-69
2024/03/21 03:10:06;;;;;;;6.57;4.93;;;13.00;99.90;;;;;;5006244;28;20453;-69
2024/03/21 03:12:32;;;;;;;5.50;5.00;;;13.10;99.90;;;;;;5008572;28;20342;-68
2024/03/21 03:14:57;;;;;;;6.57;4.93;;;13.00;99.90;;;;;;5008155;28;20451;-69
2024/03/21 03:17:23;;;;;;;7.60;4.93;;;13.00;99.90;;;;;;5025852;28;20727;-68
2024/03/21 03:19:48;;;;;;;6.57;4.83;;;13.00;99.90;;;;;;5005486;28;20911;-68
2024/03/21 03:22:14;;;;;;;7.43;5.03;;;13.00;99.90;;;;;;5007107;28;20273;-69
2024/03/21 03:24:40;;;;;;;5.07;4.57;;;13.00;99.90;;;;;;5013477;28;20274;-69
2024/03/21 03:27:05;;;;;;;5.90;5.00;;;12.90;99.90;;;;;;5011635;28;20185;-69
2024/03/21 03:29:31;;;;;;;9.40;4.73;;;12.90;99.90;;;;;;5004628;28;20184;-69
2024/03/21 03:32:01;;;;;;;5.53;4.93;;;12.90;99.90;;;;;;5007601;28;20722;-69
2024/03/21 03:37:16;;;;;;;5.80;4.43;;;13.00;99.90;;;;;;5016796;28;20557;-69
2024/03/21 03:39:42;;;;;;;6.70;5.27;;;13.00;99.90;;;;;;5012407;28;20558;-69
2024/03/21 03:42:08;;;;;;;6.00;5.40;;;13.00;99.90;;;;;;5010671;28;20270;-69
2024/03/21 03:44:34;;;;;;;6.10;4.93;;;13.00;99.90;;;;;;5010238;28;20199;-69
2024/03/21 03:47:00;;;;;;;8.80;5.80;;;13.00;99.90;;;;;;5006087;28;20439;-69
2024/03/21 03:49:25;;;;;;;7.47;6.27;;;13.00;99.90;;;;;;5006913;28;20188;-69
2024/03/21 03:51:51;;;;;;;7.40;6.37;;;13.00;99.90;;;;;;5019014;28;20275;-69
2024/03/21 03:54:17;;;;;;;8.00;6.00;;;13.00;99.90;;;;;;5016931;28;20239;-69
2024/03/21 03:56:43;;;;;;;7.37;6.20;;;13.00;99.90;;;;;;5010592;28;20184;-69
2024/03/21 03:59:08;;;;;;;6.80;6.07;;;13.00;99.90;;;;;;5005184;28;20471;-69
2024/03/21 04:01:34;;;;;;;9.30;7.17;;;13.00;99.90;;;;;;5012126;28;20188;-69
2024/03/21 04:04:00;;;;;;;10.23;6.87;;;12.90;99.90;;;;;;5011621;28;20298;-69
2024/03/21 04:06:26;;;;;;;11.10;7.00;;;12.90;99.90;;;;;;5008452;28;20197;-69
2024/03/21 04:08:52;;;;;;;10.53;7.83;;;13.00;99.90;;;;;;5006694;28;20189;-69
2024/03/21 04:11:18;;;;;;;11.77;7.27;;;13.00;99.90;;;;;;5009163;28;20435;-69
2024/03/21 04:13:43;;;;;;;9.97;7.47;;;13.00;99.90;;;;;;5010225;28;20193;-69
2024/03/21 04:16:18;;;;;;;8.60;7.20;;;12.90;99.90;;;;;;5011627;28;20506;-69
2024/03/21 04:18:44;;;;;;;8.70;7.20;;;12.80;99.90;;;;;;5004702;28;20219;-69
2024/03/21 04:21:11;;;;;;;8.93;8.00;;;12.80;99.90;;;;;;5011421;28;20517;-69
2024/03/21 04:23:37;;;;;;;14.70;7.80;;;12.80;99.90;;;;;;5013298;28;20235;-69
2024/03/21 04:26:02;;;;;;;8.70;7.40;;;12.80;99.90;;;;;;5013885;28;20507;-69
2024/03/21 04:28:28;;;;;;;9.93;7.23;;;12.80;99.90;;;;;;5010773;28;20502;-69
2024/03/21 04:30:54;;;;;;;9.53;7.90;;;12.80;99.90;;;;;;5012494;28;20181;-69
2024/03/21 04:33:19;;;;;;;9.63;8.10;;;12.80;99.90;;;;;;5015775;28;21008;-69
2024/03/21 04:35:45;;;;;;;11.20;7.70;;;12.80;99.90;;;;;;5011552;28;20204;-69
2024/03/21 04:38:10;;;;;;;11.90;7.03;;;12.80;99.90;;;;;;5012167;28;20266;-70
2024/03/21 04:40:36;;;;;;;8.33;7.17;;;12.70;99.90;;;;;;5012943;28;20679;-69
2024/03/21 04:43:02;;;;;;;9.53;7.83;;;12.70;99.90;;;;;;5008931;28;20189;-69
2024/03/21 04:45:28;;;;;;;10.07;8.00;;;12.80;99.90;;;;;;5008233;28;20636;-69
2024/03/21 04:47:54;;;;;;;9.23;7.23;;;12.80;99.90;;;;;;5010981;28;20893;-69
2024/03/21 04:50:20;;;;;;;8.50;6.37;;;12.70;99.90;;;;;;5009456;28;20444;-69
2024/03/21 04:52:46;;;;;;;8.83;7.70;;;12.80;99.90;;;;;;5008314;28;20772;-69
2024/03/21 04:55:11;;;;;;;9.07;8.10;;;12.70;99.90;;;;;;5019115;28;20499;-69
2024/03/21 04:57:38;;;;;;;10.53;7.73;;;12.70;99.90;;;;;;5008477;28;20650;-69
2024/03/21 05:00:05;;;;;;;11.53;8.70;;;12.80;99.90;;;;;;5008224;28;21181;-68
2024/03/21 05:02:31;;;;;;;11.50;7.50;;;12.80;99.90;;;;;;5008138;28;20435;-69
2024/03/21 05:04:56;;;;;;;8.23;7.43;;;12.80;99.90;;;;;;5012573;28;20448;-69
2024/03/21 05:07:22;;;;;;;10.07;7.70;;;12.80;99.90;;;;;;5008735;28;20961;-70
2024/03/21 05:09:48;;;;;;;11.70;8.57;;;12.80;99.90;;;;;;5007804;28;20226;-69
2024/03/21 05:12:16;;;;;;;13.20;8.17;;;12.80;99.90;;;;;;5018392;28;20242;-69
2024/03/21 05:14:42;;;;;;;9.10;7.70;;;12.80;99.90;;;;;;5010016;28;20205;-69
2024/03/21 05:17:09;;;;;;;9.30;7.80;;;12.90;99.90;;;;;;5009375;28;20467;-69
2024/03/21 05:19:35;;;;;;;11.50;8.40;;;12.80;99.90;;;;;;5013386;28;20217;-69
2024/03/21 05:22:01;;;;;;;8.43;7.60;;;12.80;99.90;;;;;;5008236;28;20498;-69
2024/03/21 05:24:26;;;;;;;9.83;7.20;;;12.80;99.90;;;;;;5011027;28;20230;-69
2024/03/21 05:26:52;;;;;;;14.80;7.87;;;12.80;99.90;;;;;;5014577;28;20188;-69
2024/03/21 05:29:17;;;;;;;8.73;7.40;;;12.80;99.90;;;;;;5011566;28;20199;-69
2024/03/21 05:31:43;;;;;;;9.33;8.20;;;12.80;99.90;;;;;;5013731;28;20195;-69
2024/03/21 05:34:08;;;;;;;9.70;7.30;;;12.90;99.90;;;;;;5012244;28;20208;-69
2024/03/21 05:36:34;;;;;;;11.07;7.97;;;12.80;99.90;;;;;;5011158;28;20193;-69
2024/03/21 05:39:00;;;;;;;9.63;7.80;;;12.80;99.90;;;;;;5015087;28;20215;-69
2024/03/21 05:41:26;;;;;;;10.57;8.30;;;12.80;99.90;;;;;;5014405;28;20252;-69
2024/03/21 05:43:51;;;;;;;9.43;6.67;;;12.80;99.90;;;;;;5015088;28;20455;-69
2024/03/21 05:46:18;;;;;;;8.70;7.57;;;12.90;99.90;;;;;;5014137;28;21206;-69
2024/03/21 05:48:44;;;;;;;15.07;8.00;;;12.80;99.90;;;;;;5016784;28;20238;-69
2024/03/21 05:51:09;;;;;;;11.10;8.10;;;12.80;99.90;;;;;;5014025;28;20938;-69
2024/03/21 05:53:35;;;;;;;8.93;6.70;;;12.80;99.90;;;;;;5011477;28;20185;-69
2024/03/21 05:56:06;;;;;;;8.70;7.40;;;12.90;99.90;;;;;;5011023;28;20192;-69
2024/03/21 05:58:32;;;;;;;9.40;7.33;;;12.90;99.90;;;;;;5011630;28;20232;-70
2024/03/21 06:01:07;;;;;;;8.83;7.57;;;12.90;99.90;;;;;;5004312;28;20989;-69
2024/03/21 06:03:34;;;;;;;8.20;6.87;;;12.90;99.90;;;;;;5004481;28;20956;-69
2024/03/21 06:06:00;;;;;;;10.40;7.10;;;13.00;99.90;;;;;;5012296;28;20411;-69
2024/03/21 06:08:26;;;;;;;7.67;6.70;;;13.00;99.90;;;;;;5006575;28;20436;-69
2024/03/21 06:10:52;;;;;;;12.33;6.17;;;13.10;99.90;;;;;;5007595;28;20446;-69
2024/03/21 06:13:17;;;;;;;9.37;6.40;;;13.00;99.90;;;;;;5009268;28;20247;-69
2024/03/21 06:15:43;;;;;;;9.90;7.10;;;13.10;99.90;;;;;;5013947;28;20459;-69
2024/03/21 06:18:09;;;;;;;11.83;6.80;;;13.20;99.90;;;;;;5010301;28;20212;-69
2024/03/21 06:20:34;;;;;;;8.20;6.60;;;13.20;99.90;;;;;;5012201;28;20232;-69
2024/03/21 06:23:00;;;;;;;7.03;6.33;;;13.40;99.90;;;;;;5007065;28;20276;-69
2024/03/21 06:25:26;;;;;;;10.80;6.33;;;13.30;99.90;;;;;;5012087;28;20204;-69
2024/03/21 06:27:52;;;;;;;10.50;6.87;;;13.40;99.90;;;;;;5006856;28;20219;-69
2024/03/21 06:30:19;;;;;;;8.17;6.43;;;13.40;99.90;;;;;;5010516;28;21273;-69
2024/03/21 06:32:45;;;;;;;9.80;6.57;;;13.40;99.90;;;;;;5007431;28;20461;-69
2024/03/21 06:35:10;;;;;;;7.73;6.63;;;13.60;99.90;;;;;;5008355;28;20447;-69
2024/03/21 06:37:37;;;;;;;9.40;6.27;;;13.60;99.90;;;;;;5015315;28;20769;-69
2024/03/21 06:40:08;;;;;;;8.60;6.20;;;13.60;99.90;;;;;;5007161;28;20233;-69
2024/03/21 06:42:33;;;;;;;9.77;6.90;;;13.60;99.90;;;;;;5009124;28;20519;-69
2024/03/21 06:45:00;;;;;;;11.03;6.37;;;13.60;99.90;;;;;;5010159;28;20573;-69
2024/03/21 06:47:26;;;;;;;10.07;6.60;;;13.60;99.90;;;;;;5026481;28;20868;-69
2024/03/21 06:49:56;;;;;;;8.50;6.27;;;13.70;99.90;;;;;;5010472;28;20428;-69
2024/03/21 06:52:22;;;;;;;8.87;5.97;;;13.80;99.90;;;;;;5007349;28;20177;-69
2024/03/21 06:54:48;;;;;;;7.33;6.17;;;13.80;99.90;;;;;;5006630;28;20463;-69
2024/03/21 06:57:13;;;;;;;8.43;5.90;;;13.90;99.90;;;;;;5009170;28;20509;-69
2024/03/21 06:59:39;;;;;;;9.40;5.30;;;13.90;99.90;;;;;;5007817;28;20706;-70
2024/03/21 07:02:06;;;;;;;8.27;6.23;;;13.90;99.90;;;;;;5008342;28;20696;-68
2024/03/21 07:04:31;;;;;;;7.70;5.97;;;13.90;99.90;;;;;;5014382;28;20594;-69
2024/03/21 07:06:57;;;;;;;12.07;6.03;;;14.10;99.90;;;;;;5013850;28;20431;-69
2024/03/21 07:09:23;;;;;;;8.40;6.23;;;14.10;99.90;;;;;;5018216;28;20191;-68
2024/03/21 07:11:51;;;;;;;9.40;5.93;;;14.20;99.90;;;;;;5015034;28;20234;-68
2024/03/21 07:14:16;;;;;;;6.63;5.90;;;14.30;99.90;;;;;;5014349;28;20552;-70
2024/03/21 07:16:42;;;;;;;8.20;5.33;;;14.40;99.90;;;;;;5012153;28;20454;-68
2024/03/21 07:19:08;;;;;;;8.80;6.03;;;14.40;99.90;;;;;;5010795;28;20208;-69
2024/03/21 07:21:34;;;;;;;6.20;5.40;;;14.50;99.90;;;;;;5014206;28;21497;-69
2024/03/21 07:23:59;;;;;;;6.40;5.50;;;14.60;99.90;;;;;;5013815;28;20691;-69
2024/03/21 07:26:25;;;;;;;8.70;5.80;;;14.60;99.90;;;;;;5013846;28;20184;-68
2024/03/21 07:28:50;;;;;;;8.17;5.90;;;14.60;99.90;;;;;;5013608;28;20279;-69
2024/03/21 07:31:16;;;;;;;8.53;6.27;;;14.70;99.90;;;;;;5014590;28;20283;-69
2024/03/21 07:33:42;;;;;;;7.10;6.23;;;14.70;99.90;;;;;;5012463;28;20678;-69
2024/03/21 07:36:07;;;;;;;6.83;5.70;;;14.70;99.90;;;;;;5011565;28;20189;-69
2024/03/21 07:38:33;;;;;;;7.63;5.43;;;14.70;99.90;;;;;;5010240;28;20193;-69
2024/03/21 07:41:01;;;;;;;11.53;6.23;;;14.80;99.90;;;;;;5013233;28;20183;-69
2024/03/21 07:43:27;;;;;;;6.33;5.40;;;14.80;99.90;;;;;;5013844;28;20545;-69
2024/03/21 07:45:53;;;;;;;9.17;6.30;;;14.70;99.90;;;;;;5014301;28;20466;-69
2024/03/21 07:48:19;;;;;;;6.20;5.57;;;14.80;99.90;;;;;;5013710;28;20203;-69
2024/03/21 07:50:45;;;;;;;7.07;6.37;;;14.80;99.90;;;;;;5013053;28;20283;-69
2024/03/21 07:53:11;;;;;;;7.47;5.77;;;14.90;99.90;;;;;;5013068;28;20492;-69
2024/03/21 07:55:37;;;;;;;6.97;5.93;;;14.90;99.90;;;;;;5012865;28;20972;-69
2024/03/21 07:58:05;;;;;;;9.30;6.27;;;15.10;99.90;;;;;;5019148;28;20298;-69
2024/03/21 08:00:30;;;;;;;8.60;6.63;;;15.00;99.90;;;;;;5016717;28;20247;-69
2024/03/21 08:02:57;;;;;;;7.67;6.50;;;15.10;99.90;;;;;;5017941;28;20428;-69
2024/03/21 08:05:23;;;;;;;8.20;6.20;;;15.10;99.90;;;;;;5015143;28;20273;-68
2024/03/21 08:07:48;;;;;;;7.20;6.50;;;15.10;99.90;;;;;;5011112;28;20415;-68
2024/03/21 08:10:14;;;;;;;10.13;6.40;;;15.30;99.90;;;;;;5014866;28;20455;-68
2024/03/21 08:12:40;;;;;;;13.37;6.50;;;15.20;99.90;;;;;;5016880;28;20296;-68
2024/03/21 08:15:06;;;;;;;8.83;6.63;;;15.30;99.90;;;;;;5019130;28;20549;-69
2024/03/21 08:17:32;;;;;;;8.80;7.33;;;15.30;99.90;;;;;;5016211;28;20291;-69
2024/03/21 08:19:58;;;;;;;8.67;6.50;;;15.30;99.90;;;;;;5013738;28;20464;-69
2024/03/21 08:22:23;;;;;;;7.70;6.60;;;15.50;99.90;;;;;;5016386;28;20184;-68
2024/03/21 08:24:49;;;;;;;8.10;6.50;;;15.50;99.90;;;;;;5015226;28;20622;-69
2024/03/21 08:27:19;;;;;;;9.87;7.27;;;15.50;99.90;;;;;;5011579;28;20189;-69
2024/03/21 08:29:46;;;;;;;8.37;6.57;;;15.40;99.90;;;;;;5014041;28;20183;-69
2024/03/21 08:32:12;;;;;;;8.73;6.87;;;15.50;99.90;;;;;;5012973;28;20513;-69
2024/03/21 08:34:38;;;;;;;8.00;6.50;;;15.50;99.90;;;;;;5011064;28;21052;-69
2024/03/21 08:37:04;;;;;;;10.33;7.30;;;15.50;99.90;;;;;;5011383;28;20427;-69
2024/03/21 08:39:29;;;;;;;6.50;5.80;;;15.50;99.90;;;;;;5006917;28;20217;-70
2024/03/21 08:41:55;;;;;;;8.80;7.40;;;15.60;99.90;;;;;;5005724;28;20212;-69
2024/03/21 08:44:21;;;;;;;8.07;6.40;;;15.70;99.90;;;;;;5007818;28;20240;-70
2024/03/21 08:46:46;;;;;;;8.93;7.10;;;15.80;99.90;;;;;;5013784;28;20260;-71
2024/03/21 08:49:13;;;;;;;10.33;7.40;;;15.90;99.90;;;;;;5010059;28;20200;-70
2024/03/21 08:51:39;;;;;;;9.67;6.70;;;16.00;99.90;;;;;;5008706;28;20231;-71
2024/03/21 08:54:05;;;;;;;10.00;7.10;;;16.20;99.90;;;;;;5013865;28;20470;-70
2024/03/21 08:56:31;;;;;;;10.13;7.23;;;16.20;99.90;;;;;;5010959;28;20184;-70
2024/03/21 08:58:57;;;;;;;13.00;7.73;;;16.40;99.90;;;;;;5013480;28;20451;-70
2024/03/21 09:01:22;;;;;;;9.60;8.23;;;16.40;99.90;;;;;;5011126;28;20181;-70
2024/03/21 09:03:48;;;;;;;10.80;7.70;;;16.40;99.90;;;;;;5014667;28;20520;-70
2024/03/21 09:06:14;;;;;;;12.70;7.60;;;16.30;99.90;;;;;;5017788;28;20212;-70
2024/03/21 09:08:40;;;;;;;10.70;8.23;;;16.30;99.90;;;;;;5011630;28;20742;-69
2024/03/21 09:11:06;;;;;;;7.60;6.80;;;16.30;99.90;;;;;;5013674;28;20719;-70
2024/03/21 09:13:32;;;;;;;13.93;9.10;;;16.30;99.90;;;;;;5013957;28;20185;-70
2024/03/21 09:15:57;;;;;;;9.57;7.70;;;16.30;99.90;;;;;;5012230;28;20189;-71
2024/03/21 09:18:23;;;;;;;11.73;7.10;;;16.30;99.90;;;;;;5013272;28;20184;-71
2024/03/21 09:20:50;;;;;;;7.77;6.70;;;16.20;99.90;;;;;;5011258;28;21035;-71
2024/03/21 09:23:16;;;;;;;13.30;7.87;;;16.20;99.90;;;;;;5013648;28;20192;-71
2024/03/21 09:25:42;;;;;;;9.20;7.47;;;16.10;99.90;;;;;;5013754;28;20459;-71
2024/03/21 09:28:07;;;;;;;9.73;7.93;;;16.10;99.90;;;;;;5014226;28;20554;-70
2024/03/21 09:30:33;;;;;;;9.87;8.00;;;16.10;99.90;;;;;;5014447;28;20560;-70
2024/03/21 09:32:59;;;;;;;10.53;7.70;;;16.20;99.90;;;;;;5011500;28;20227;-71
2024/03/21 09:35:24;;;;;;;13.50;8.00;;;16.20;99.90;;;;;;5014719;28;20204;-71
2024/03/21 09:37:50;;;;;;;9.13;7.70;;;16.40;99.90;;;;;;5019060;28;20667;-71
2024/03/21 09:40:17;;;;;;;10.03;7.80;;;16.40;99.90;;;;;;5013255;28;20215;-70
2024/03/21 09:42:43;;;;;;;8.80;7.47;;;16.30;99.90;;;;;;5010650;28;20276;-70
2024/03/21 09:45:13;;;;;;;11.60;8.43;;;16.30;99.90;;;;;;5007651;28;20506;-70
2024/03/21 09:47:40;;;;;;;14.50;8.30;;;16.30;99.90;;;;;;5013592;28;20176;-70
2024/03/21 09:50:11;;;;;;;10.30;8.30;;;16.40;99.90;;;;;;5008424;28;20619;-70
2024/03/21 09:52:37;;;;;;;8.80;7.33;;;16.70;99.90;;;;;;5011556;28;20416;-70
2024/03/21 09:55:14;;;;;;;10.13;8.20;;;16.80;99.90;;;;;;5008974;28;20452;-71
2024/03/21 09:57:43;;;;;;;13.70;8.80;;;17.10;99.90;;;;;;5011993;28;20442;-70
2024/03/21 10:00:12;;;;;;;9.90;8.40;;;17.10;99.90;;;;;;5019632;28;21028;-70
2024/03/21 10:02:37;;;;;;;10.87;9.60;;;17.20;99.90;;;;;;5015947;28;20435;-70
2024/03/21 10:05:05;;;;;;;11.27;8.10;;;17.20;99.90;;;;;;5010652;28;20528;-70
2024/03/21 10:07:32;;;;;;;11.13;9.20;;;17.20;99.90;;;;;;5007696;28;20514;-71
2024/03/21 10:09:58;;;;;;;10.90;9.03;;;17.20;99.90;;;;;;5012862;28;20420;-70
2024/03/21 10:12:25;;;;;;;11.10;8.47;;;17.20;99.90;;;;;;5018011;28;20438;-70
2024/03/21 10:14:55;;;;;;;17.10;9.97;;;17.20;99.90;;;;;;5011406;28;21044;-70
2024/03/21 10:17:21;;;;;;;10.20;8.63;;;17.20;99.90;;;;;;5011990;28;20941;-70
2024/03/21 10:19:47;;;;;;;10.43;8.77;;;17.20;99.90;;;;;;5010491;28;20467;-70
2024/03/21 10:22:21;;;;;;;11.13;8.63;;;17.30;99.90;;;;;;5010984;28;20478;-70
2024/03/21 10:24:54;;;;;;;12.13;9.30;;;17.50;99.90;;;;;;5016382;28;20210;-70
2024/03/21 10:27:20;;;;;;;14.00;9.30;;;17.50;99.90;;;;;;5017346;28;20432;-70
2024/03/21 10:29:46;;;;;;;11.37;8.60;;;17.50;99.90;;;;;;5019145;28;20419;-70
2024/03/21 10:32:19;;;;;;;13.80;8.67;;;17.50;99.90;;;;;;5014390;28;20465;-70
2024/03/21 10:34:50;;;;;;;9.63;8.63;;;17.60;99.90;;;;;;5022680;28;20462;-71
2024/03/21 10:37:23;;;;;;;11.90;8.30;;;17.70;99.90;;;;;;5021391;28;20403;-70
2024/03/21 10:39:51;;;;;;;11.60;8.50;;;17.80;99.90;;;;;;5017845;28;20984;-70
2024/03/21 10:42:39;;;;;;;9.13;7.87;;;18.10;99.90;;;;;;5023982;28;20507;-70
2024/03/21 10:45:05;;;;;;;12.53;8.47;;;18.20;99.90;;;;;;5027271;28;20427;-70
2024/03/21 10:47:32;;;;;;;10.00;8.97;;;18.50;99.90;;;;;;5019550;28;20434;-71
2024/03/21 10:49:58;;;;;;;12.07;8.50;;;18.60;99.90;;;;;;5015103;28;20439;-70
2024/03/21 10:52:24;;;;;;;9.93;8.63;;;18.80;99.90;;;;;;5020706;28;20473;-70
2024/03/21 10:54:54;;;;;;;8.80;7.47;;;18.80;99.90;;;;;;5009201;28;20460;-70
2024/03/21 10:57:24;;;;;;;11.43;7.57;;;18.80;99.90;;;;;;5009969;28;20188;-70
2024/03/21 11:00:10;;;;;;;10.90;8.53;;;18.90;99.90;;;;;;5016235;28;20550;-70
2024/03/21 11:02:36;;;;;;;19.83;8.10;;;19.20;99.90;;;;;;5014002;28;20495;-70
2024/03/21 11:05:14;;;;;;;10.23;8.73;;;19.30;99.90;;;;;;5016398;28;20970;-70
2024/03/21 11:07:40;;;;;;;16.20;8.40;;;19.40;99.90;;;;;;5006186;28;20420;-70
2024/03/21 11:10:07;;;;;;;11.83;8.73;;;19.40;99.90;;;;;;5013749;28;20423;-70
2024/03/21 11:12:35;;;;;;;8.10;6.90;;;19.40;99.90;;;;;;5018078;28;20604;-70
2024/03/21 11:15:01;;;;;;;9.33;7.90;;;19.50;99.90;;;;;;5014832;28;20538;-70
2024/03/21 11:17:27;;;;;;;9.37;7.90;;;19.50;99.90;;;;;;5012869;28;20901;-70
2024/03/21 11:19:53;;;;;;;11.67;8.50;;;19.60;99.90;;;;;;5012448;28;20582;-71
2024/03/21 11:22:19;;;;;;;10.13;8.87;;;19.50;99.90;;;;;;5012292;28;20185;-70
2024/03/21 11:24:45;;;;;;;10.33;7.67;;;19.70;99.90;;;;;;5011447;28;20201;-70
2024/03/21 11:27:16;;;;;;;12.73;7.10;;;19.90;99.90;;;;;;5016523;28;20180;-71
2024/03/21 11:29:42;;;;;;;9.73;8.63;;;20.10;99.90;;;;;;5011028;28;20188;-70
2024/03/21 11:32:08;;;;;;;9.67;7.60;;;20.00;99.90;;;;;;5013646;28;20423;-70
2024/03/21 11:34:36;;;;;;;10.60;6.53;;;20.10;99.90;;;;;;5005813;28;20213;-71
2024/03/21 11:37:02;;;;;;;10.00;7.90;;;20.10;99.90;;;;;;5027901;28;20724;-70
2024/03/21 11:39:28;;;;;;;10.57;7.80;;;20.20;99.90;;;;;;5011237;28;20467;-72
2024/03/21 11:41:59;;;;;;;8.90;7.90;;;20.20;99.90;;;;;;5012067;28;20960;-70
2024/03/21 11:44:25;;;;;;;9.10;7.33;;;20.40;99.90;;;;;;5015041;28;20458;-70
2024/03/21 11:46:50;;;;;;;8.30;7.40;;;20.60;99.90;;;;;;5011166;28;20423;-70
2024/03/21 11:49:16;;;;;;;12.80;8.77;;;20.70;99.90;;;;;;5013567;28;20204;-70
2024/03/21 11:51:42;;;;;;;11.00;9.07;;;20.70;99.90;;;;;;5015585;28;20188;-70
2024/03/21 11:54:09;;;;;;;14.83;9.73;;;20.80;99.90;;;;;;5010118;28;20193;-71
2024/03/21 11:56:37;;;;;;;11.30;10.20;;;20.70;99.90;;;;;;5010941;28;20431;-71
2024/03/21 11:59:04;;;;;;;14.10;10.20;;;20.60;99.90;;;;;;5011860;28;20873;-71
2024/03/21 12:01:30;;;;;;;11.23;10.00;;;20.50;99.90;;;;;;5009383;28;20416;-70
2024/03/21 12:03:56;;;;;;;12.17;9.97;;;20.40;99.90;;;;;;5011384;28;20443;-70
2024/03/21 12:06:22;;;;;;;11.17;10.07;;;20.40;99.90;;;;;;5014612;28;20837;-71
2024/03/21 12:08:50;;;;;;;11.33;10.23;;;20.20;99.90;;;;;;5009750;28;21026;-70
2024/03/21 12:11:19;;;;;;;10.70;9.57;;;20.20;99.90;;;;;;5009933;28;20416;-70
2024/03/21 12:13:44;;;;;;;15.20;11.40;;;20.20;99.90;;;;;;5009733;28;20670;-70
2024/03/21 12:16:15;;;;;;;11.77;9.97;;;20.30;99.90;;;;;;5013605;28;20432;-70
2024/03/21 12:18:41;;;;;;;12.47;11.23;;;21.10;99.90;;;;;;5013537;28;20697;-70
2024/03/21 12:21:18;;;;;;;12.50;10.63;;;21.30;99.90;;;;;;5007221;28;20416;-70
2024/03/21 12:23:45;;;;;;;14.30;10.20;;;21.30;99.90;;;;;;5011110;28;20239;-70
2024/03/21 12:26:11;;;;;;;11.70;10.53;;;21.40;99.90;;;;;;5020875;28;20507;-70
2024/03/21 12:28:37;;;;;;;12.60;11.27;;;21.30;99.90;;;;;;5008515;28;20499;-70
2024/03/21 12:31:03;;;;;;;10.07;9.07;;;21.60;99.90;;;;;;5008610;28;20447;-69
2024/03/21 12:33:29;;;;;;;9.77;8.77;;;23.70;99.90;;;;;;5010313;28;21102;-70
2024/03/21 12:35:55;;;;;;;11.00;9.37;;;26.70;99.90;;;;;;5012657;28;20818;-70
2024/03/21 12:38:20;;;;;;;8.57;7.63;;;28.90;99.90;;;;;;5009284;28;20248;-70
2024/03/21 12:40:47;;;;;;;8.73;7.93;;;29.20;95.10;;;;;;5007270;28;20721;-71
2024/03/21 12:43:13;;;;;;;9.80;8.90;;;28.50;91.40;;;;;;5013398;28;20203;-70